Alva, OK

12:17 PM CDT on July 26, 2017 (GMT -0500)
Alva Regional

Weather History for KAVK - November, 2013

Change the Weather History Date:

Friday, November 29, 2013

  Actual Average Record
Temperature  
Mean Temperature 41 °F -  
Max Temperature 59 °F 55 °F 80 °F (1949)
Min Temperature 23 °F 31 °F 13 °F (1955)
Degree Days  
Heating Degree Days 24    
Moisture  
Dew Point 28 °F    
Average Humidity 68    
Maximum Humidity 93    
Minimum Humidity 29    
Precipitation  
Precipitation 0.00 in - - ()
Sea Level Pressure  
Sea Level Pressure 30.28 in    
Wind  
Wind Speed 9 mph (SSE)    
Max Wind Speed 25 mph    
Max Gust Speed 31 mph    
Visibility 10 miles    
Events      
Averages and records for this station are not official NWS values.
T = Trace of Precipitation, MM = Missing Value Source: NWS Daily Summary

Daily Weather History Graph

Daily Weather History Graph

Search for Another Location

Airport or City:

Trip Planner

Search our weather history database for the weather conditions in past years. The results will help you decide how hot, cold, wet, or windy it might be!

Date:

Astronomy

Nov. 29, 2013 Rise Set
Actual Time 7:27 AM CST 5:18 PM CST
Civil Twilight 6:58 AM CST 5:47 PM CST
Nautical Twilight 6:26 AM CST 6:19 PM CST
Astronomical Twilight 5:55 AM CST 6:50 PM CST
Moon 3:39 AM CST (11/29) 3:00 PM CST (11/29)
Length of Visible Light 10h 48m
Length of Day
9h 51m
Waning Crescent, 14% of the Moon is Illuminated
Nov 29
Waning Crescent
Dec 2
New
Dec 9
First Quarter
Dec 17
Full
Dec 25
Last Quarter

Hourly Weather History & Observations

Time (CST) Temp. Windchill Dew Point Humidity Pressure Visibility Wind Dir Wind Speed Gust Speed Precip Events Conditions
12:10 AM 30.2 °F 21.9 °F 23.0 °F 75% 30.40 in 10.0 mi NNE 9.2 mph - N/A   Clear
12:30 AM 30.2 °F 21.9 °F 23.0 °F 75% 30.40 in 10.0 mi NNE 9.2 mph - N/A   Clear
12:50 AM 28.4 °F 21.2 °F 23.0 °F 80% 30.39 in 10.0 mi NE 6.9 mph - N/A   Clear
1:10 AM 28.4 °F 22.2 °F 23.0 °F 80% 30.39 in 10.0 mi NNE 5.8 mph - N/A   Clear
1:30 AM 28.4 °F 22.2 °F 23.0 °F 80% 30.39 in 10.0 mi NNE 5.8 mph - N/A   Clear
1:50 AM 26.6 °F 20.0 °F 23.0 °F 86% 30.39 in 10.0 mi NE 5.8 mph - N/A   Clear
2:10 AM 26.6 °F 21.2 °F 23.0 °F 86% 30.39 in 10.0 mi NNE 4.6 mph - N/A   Clear
2:30 AM 26.6 °F 20.0 °F 23.0 °F 86% 30.39 in 10.0 mi NNE 5.8 mph - N/A   Clear
2:50 AM 26.6 °F 21.2 °F 23.0 °F 86% 30.40 in 10.0 mi North 4.6 mph - N/A   Clear
3:10 AM 26.6 °F 20.0 °F 23.0 °F 86% 30.39 in 10.0 mi NNE 5.8 mph - N/A   Clear
3:30 AM 26.6 °F 20.0 °F 23.0 °F 86% 30.38 in 10.0 mi NE 5.8 mph - N/A   Clear
3:50 AM 24.8 °F 19.1 °F 23.0 °F 93% 30.38 in 10.0 mi NNE 4.6 mph - N/A   Clear
4:10 AM 24.8 °F 19.1 °F 23.0 °F 93% 30.37 in 10.0 mi NE 4.6 mph - N/A   Clear
4:30 AM 24.8 °F 16.9 °F 23.0 °F 93% 30.37 in 10.0 mi NE 6.9 mph - N/A   Clear
4:50 AM 24.8 °F 17.9 °F 23.0 °F 93% 30.37 in 10.0 mi NE 5.8 mph - N/A   Partly Cloudy
5:10 AM 24.8 °F 19.1 °F 21.2 °F 86% 30.37 in 10.0 mi NE 4.6 mph - N/A   Scattered Clouds
5:30 AM 24.8 °F 17.9 °F 21.2 °F 86% 30.37 in 10.0 mi NE 5.8 mph - N/A   Scattered Clouds
5:50 AM 24.8 °F 20.5 °F 21.2 °F 86% 30.36 in 10.0 mi NE 3.5 mph - N/A   Mostly Cloudy
6:10 AM 24.8 °F 20.5 °F 21.2 °F 86% 30.37 in 10.0 mi ENE 3.5 mph - N/A   Scattered Clouds
6:30 AM 23.0 °F - 21.2 °F 93% 30.37 in 10.0 mi Calm Calm - N/A   Scattered Clouds
6:50 AM 24.8 °F - 23.0 °F 93% 30.37 in 10.0 mi Calm Calm - N/A   Partly Cloudy
7:10 AM 24.8 °F 19.1 °F 23.0 °F 93% 30.37 in 10.0 mi South 4.6 mph - N/A   Clear
7:30 AM 23.0 °F 18.4 °F 21.2 °F 93% 30.37 in 8.0 mi SSE 3.5 mph - N/A   Clear
7:50 AM 23.0 °F 17.0 °F 21.2 °F 93% 30.37 in 7.0 mi South 4.6 mph - N/A   Clear
8:10 AM 24.8 °F - 23.0 °F 93% 30.37 in 8.0 mi Calm Calm - N/A   Clear
8:30 AM 26.6 °F 21.2 °F 24.8 °F 93% 30.36 in 8.0 mi SSE 4.6 mph - N/A   Clear
8:50 AM 28.4 °F 21.2 °F 26.6 °F 93% 30.36 in 8.0 mi South 6.9 mph - N/A   Clear
9:10 AM 30.2 °F 25.4 °F 26.6 °F 86% 30.37 in 8.0 mi South 4.6 mph - N/A   Clear
9:30 AM 32.0 °F 26.4 °F 26.6 °F 80% 30.37 in 8.0 mi SSE 5.8 mph - N/A   Clear
9:50 AM 33.8 °F 27.7 °F 28.4 °F 81% 30.37 in 9.0 mi SSE 6.9 mph - N/A   Clear
10:10 AM 37.4 °F 31.4 °F 28.4 °F 70% 30.37 in 10.0 mi SSE 8.1 mph - N/A   Clear
10:30 AM 39.2 °F 33.6 °F 30.2 °F 70% 30.37 in 10.0 mi South 8.1 mph - N/A   Clear
10:50 AM 41.0 °F 34.7 °F 32.0 °F 70% 30.35 in 10.0 mi South 10.4 mph - N/A   Clear
11:10 AM 46.4 °F 40.4 °F 32.0 °F 57% 30.34 in 10.0 mi South 13.8 mph - N/A   Clear
11:30 AM 48.2 °F - 32.0 °F 54% 30.32 in 10.0 mi South 11.5 mph - N/A   Clear
11:50 AM 48.2 °F - 32.0 °F 54% 30.31 in 10.0 mi SSE 12.7 mph - N/A   Clear
12:10 PM 50.0 °F - 32.0 °F 50% 30.30 in 10.0 mi South 12.7 mph - N/A   Clear
12:30 PM 51.8 °F - 32.0 °F 47% 30.27 in 10.0 mi SSE 13.8 mph - N/A   Clear
12:50 PM 53.6 °F - 32.0 °F 44% 30.26 in 10.0 mi SSE 13.8 mph 19.6 mph N/A   Clear
1:10 PM 53.6 °F - 32.0 °F 44% 30.24 in 10.0 mi SSE 12.7 mph - N/A   Clear
1:30 PM 57.2 °F - 32.0 °F 38% 30.23 in 10.0 mi SSW 20.7 mph - N/A   Clear
1:50 PM 59.0 °F - 30.2 °F 34% 30.22 in 10.0 mi South 23.0 mph - N/A   Clear
2:10 PM 59.0 °F - 30.2 °F 34% 30.21 in 10.0 mi South 23.0 mph 27.6 mph N/A   Clear
2:30 PM 59.0 °F - 28.4 °F 31% 30.20 in 10.0 mi South 24.2 mph 29.9 mph N/A   Clear
2:50 PM 59.0 °F - 26.6 °F 29% 30.19 in 10.0 mi South 25.3 mph 31.1 mph N/A   Clear
3:10 PM 59.0 °F - 28.4 °F 31% 30.18 in 10.0 mi South 24.2 mph 29.9 mph N/A   Clear
3:30 PM 57.2 °F - 28.4 °F 33% 30.17 in 10.0 mi South 24.2 mph 27.6 mph N/A   Clear
3:50 PM 57.2 °F - 28.4 °F 33% 30.17 in 10.0 mi South 20.7 mph 27.6 mph N/A   Clear
4:10 PM 55.4 °F - 26.6 °F 33% 30.17 in 10.0 mi South 18.4 mph - N/A   Clear
4:30 PM 55.4 °F - 28.4 °F 36% 30.18 in 10.0 mi South 20.7 mph 28.8 mph N/A   Clear
4:50 PM 53.6 °F - 30.2 °F 41% 30.19 in 10.0 mi South 18.4 mph - N/A   Clear
5:10 PM 51.8 °F - 32.0 °F 47% 30.18 in 10.0 mi South 17.3 mph - N/A   Clear
5:30 PM 50.0 °F - 32.0 °F 50% 30.18 in 10.0 mi South 13.8 mph - N/A   Clear
5:50 PM 48.2 °F - 32.0 °F 54% 30.18 in 10.0 mi South 11.5 mph - N/A   Clear
6:10 PM 46.4 °F 40.7 °F 32.0 °F 57% 30.18 in 10.0 mi South 12.7 mph - N/A   Clear
6:30 PM 46.4 °F 41.1 °F 32.0 °F 57% 30.18 in 10.0 mi South 11.5 mph - N/A   Clear
6:50 PM 46.4 °F 40.7 °F 32.0 °F 57% 30.17 in 10.0 mi South 12.7 mph - N/A   Clear
7:10 PM 44.6 °F 38.1 °F 32.0 °F 61% 30.17 in 10.0 mi South 13.8 mph - N/A   Clear
7:30 PM 44.6 °F 38.4 °F 32.0 °F 61% 30.17 in 10.0 mi South 12.7 mph - N/A   Clear
7:50 PM 44.6 °F 38.1 °F 32.0 °F 61% 30.17 in 10.0 mi South 13.8 mph - N/A   Clear
8:10 PM 44.6 °F 37.8 °F 32.0 °F 61% 30.17 in 10.0 mi South 15.0 mph - N/A   Clear
8:30 PM 42.8 °F 36.2 °F 32.0 °F 66% 30.16 in 10.0 mi South 12.7 mph - N/A   Clear
8:50 PM 42.8 °F 36.2 °F 32.0 °F 66% 30.16 in 10.0 mi South 12.7 mph - N/A   Clear
9:10 PM 41.0 °F 33.9 °F 32.0 °F 70% 30.16 in 10.0 mi South 12.7 mph - N/A   Clear
9:30 PM 41.0 °F 33.5 °F 32.0 °F 70% 30.15 in 10.0 mi South 13.8 mph - N/A   Clear
9:50 PM 39.2 °F 31.6 °F 32.0 °F 75% 30.15 in 10.0 mi South 12.7 mph - N/A   Clear
10:10 PM 39.2 °F 32.0 °F 32.0 °F 75% 30.15 in 10.0 mi South 11.5 mph - N/A   Clear
10:30 PM 37.4 °F 30.8 °F 32.0 °F 81% 30.15 in 10.0 mi SSE 9.2 mph - N/A   Clear
10:50 PM 37.4 °F 31.4 °F 32.0 °F 81% 30.15 in 10.0 mi SSE 8.1 mph - N/A   Clear
11:10 PM 37.4 °F 31.4 °F 32.0 °F 81% 30.14 in 10.0 mi SSE 8.1 mph - N/A   Clear
11:30 PM 39.2 °F 33.0 °F 32.0 °F 75% 30.14 in 10.0 mi SSW 9.2 mph - N/A   Clear
11:50 PM 44.6 °F 43.1 °F 32.0 °F 61% 30.15 in 10.0 mi SSW 3.5 mph - N/A   Clear